sensor_id;sensor_type;location;lat;lon;timestamp;P1;P2;P0
72793;PMS5003;63436;26.334;50.194;2022-11-23T00:01:13;66;63;
72793;PMS5003;63436;26.334;50.194;2022-11-23T00:03:30;64;62;
72793;PMS5003;63436;26.334;50.194;2022-11-23T00:05:55;62;58;
72793;PMS5003;63436;26.334;50.194;2022-11-23T00:08:20;67;58;
72793;PMS5003;63436;26.334;50.194;2022-11-23T00:10:46;69;59;
72793;PMS5003;63436;26.334;50.194;2022-11-23T00:13:11;65;61;
72793;PMS5003;63436;26.334;50.194;2022-11-23T00:15:39;71;62;
72793;PMS5003;63436;26.334;50.194;2022-11-23T00:18:03;81;73;
72793;PMS5003;63436;26.334;50.194;2022-11-23T00:20:28;87;73;
72793;PMS5003;63436;26.334;50.194;2022-11-23T00:22:55;84;71;
72793;PMS5003;63436;26.334;50.194;2022-11-23T00:25:21;83;76;
72793;PMS5003;63436;26.334;50.194;2022-11-23T00:27:47;86;77;
72793;PMS5003;63436;26.334;50.194;2022-11-23T00:30:13;95;80;
72793;PMS5003;63436;26.334;50.194;2022-11-23T00:32:36;87;79;
72793;PMS5003;63436;26.334;50.194;2022-11-23T00:35:01;93;81;
72793;PMS5003;63436;26.334;50.194;2022-11-23T00:37:26;85;73;
72793;PMS5003;63436;26.334;50.194;2022-11-23T00:39:52;81;69;
72793;PMS5003;63436;26.334;50.194;2022-11-23T00:42:17;79;67;
72793;PMS5003;63436;26.334;50.194;2022-11-23T00:44:42;79;69;
72793;PMS5003;63436;26.334;50.194;2022-11-23T00:47:08;95;79;
72793;PMS5003;63436;26.334;50.194;2022-11-23T00:49:34;79;72;
72793;PMS5003;63436;26.334;50.194;2022-11-23T00:51:59;84;74;
72793;PMS5003;63436;26.334;50.194;2022-11-23T00:54:25;87;78;
72793;PMS5003;63436;26.334;50.194;2022-11-23T00:56:51;77;73;
72793;PMS5003;63436;26.334;50.194;2022-11-23T00:59:16;89;81;
72793;PMS5003;63436;26.334;50.194;2022-11-23T01:01:41;87;79;
72793;PMS5003;63436;26.334;50.194;2022-11-23T01:04:07;108;88;
72793;PMS5003;63436;26.334;50.194;2022-11-23T01:06:34;95;83;
72793;PMS5003;63436;26.334;50.194;2022-11-23T01:08:58;121;108;
72793;PMS5003;63436;26.334;50.194;2022-11-23T01:11:24;112;98;
72793;PMS5003;63436;26.334;50.194;2022-11-23T01:13:49;115;96;
72793;PMS5003;63436;26.334;50.194;2022-11-23T01:16:15;102;94;
72793;PMS5003;63436;26.334;50.194;2022-11-23T01:18:39;107;99;
72793;PMS5003;63436;26.334;50.194;2022-11-23T01:21:04;108;96;
72793;PMS5003;63436;26.334;50.194;2022-11-23T01:23:30;103;90;
72793;PMS5003;63436;26.334;50.194;2022-11-23T01:25:56;108;93;
72793;PMS5003;63436;26.334;50.194;2022-11-23T01:28:22;104;92;
72793;PMS5003;63436;26.334;50.194;2022-11-23T01:30:47;103;93;
72793;PMS5003;63436;26.334;50.194;2022-11-23T01:33:12;98;88;
72793;PMS5003;63436;26.334;50.194;2022-11-23T01:35:37;111;96;
72793;PMS5003;63436;26.334;50.194;2022-11-23T01:38:03;99;92;
72793;PMS5003;63436;26.334;50.194;2022-11-23T01:40:28;104;89;
72793;PMS5003;63436;26.334;50.194;2022-11-23T01:42:54;92;80;
72793;PMS5003;63436;26.334;50.194;2022-11-23T01:47:44;68;63;
72793;PMS5003;63436;26.334;50.194;2022-11-23T01:50:10;70;59;
72793;PMS5003;63436;26.334;50.194;2022-11-23T01:52:35;59;56;
72793;PMS5003;63436;26.334;50.194;2022-11-23T01:55:01;54;53;
72793;PMS5003;63436;26.334;50.194;2022-11-23T01:57:27;56;52;
72793;PMS5003;63436;26.334;50.194;2022-11-23T01:59:52;66;60;
72793;PMS5003;63436;26.334;50.194;2022-11-23T02:02:18;60;57;
72793;PMS5003;63436;26.334;50.194;2022-11-23T02:04:44;63;58;
72793;PMS5003;63436;26.334;50.194;2022-11-23T02:07:09;57;53;
72793;PMS5003;63436;26.334;50.194;2022-11-23T02:09:35;59;58;
72793;PMS5003;63436;26.334;50.194;2022-11-23T02:12:00;64;56;
72793;PMS5003;63436;26.334;50.194;2022-11-23T02:14:26;63;62;
72793;PMS5003;63436;26.334;50.194;2022-11-23T02:16:51;70;65;
72793;PMS5003;63436;26.334;50.194;2022-11-23T02:19:19;56;55;
72793;PMS5003;63436;26.334;50.194;2022-11-23T02:21:41;63;60;
72793;PMS5003;63436;26.334;50.194;2022-11-23T02:24:07;58;54;
72793;PMS5003;63436;26.334;50.194;2022-11-23T02:26:32;66;53;
72793;PMS5003;63436;26.334;50.194;2022-11-23T02:28:58;56;54;
72793;PMS5003;63436;26.334;50.194;2022-11-23T02:31:22;52;49;
72793;PMS5003;63436;26.334;50.194;2022-11-23T02:33:48;55;54;
72793;PMS5003;63436;26.334;50.194;2022-11-23T02:38:38;52;48;
72793;PMS5003;63436;26.334;50.194;2022-11-23T02:41:04;57;53;
72793;PMS5003;63436;26.334;50.194;2022-11-23T02:43:29;50;49;
72793;PMS5003;63436;26.334;50.194;2022-11-23T02:45:55;47;46;
72793;PMS5003;63436;26.334;50.194;2022-11-23T02:48:20;44;43;
72793;PMS5003;63436;26.334;50.194;2022-11-23T02:50:46;51;44;
72793;PMS5003;63436;26.334;50.194;2022-11-23T02:53:11;50;47;
72793;PMS5003;63436;26.334;50.194;2022-11-23T02:55:37;50;48;
72793;PMS5003;63436;26.334;50.194;2022-11-23T02:58:03;45;43;
72793;PMS5003;63436;26.334;50.194;2022-11-23T03:00:28;54;47;
72793;PMS5003;63436;26.334;50.194;2022-11-23T03:02:59;49;48;
72793;PMS5003;63436;26.334;50.194;2022-11-23T03:05:19;47;44;
72793;PMS5003;63436;26.334;50.194;2022-11-23T03:07:45;45;44;
72793;PMS5003;63436;26.334;50.194;2022-11-23T03:10:10;49;46;
72793;PMS5003;63436;26.334;50.194;2022-11-23T03:12:35;46;44;
72793;PMS5003;63436;26.334;50.194;2022-11-23T03:15:02;42;41;
72793;PMS5003;63436;26.334;50.194;2022-11-23T03:17:26;51;45;
72793;PMS5003;63436;26.334;50.194;2022-11-23T03:19:51;49;48;
72793;PMS5003;63436;26.334;50.194;2022-11-23T03:22:16;54;52;
72793;PMS5003;63436;26.334;50.194;2022-11-23T03:24:41;54;50;
72793;PMS5003;63436;26.334;50.194;2022-11-23T03:27:07;50;45;
72793;PMS5003;63436;26.334;50.194;2022-11-23T03:29:32;49;46;
72793;PMS5003;63436;26.334;50.194;2022-11-23T03:31:58;57;55;
72793;PMS5003;63436;26.334;50.194;2022-11-23T03:34:24;53;49;
72793;PMS5003;63436;26.334;50.194;2022-11-23T03:36:49;50;50;
72793;PMS5003;63436;26.334;50.194;2022-11-23T03:39:14;49;46;
72793;PMS5003;63436;26.334;50.194;2022-11-23T03:41:40;64;61;
72793;PMS5003;63436;26.334;50.194;2022-11-23T03:44:06;57;53;
72793;PMS5003;63436;26.334;50.194;2022-11-23T03:46:32;64;62;
72793;PMS5003;63436;26.334;50.194;2022-11-23T03:48:57;55;52;
72793;PMS5003;63436;26.334;50.194;2022-11-23T03:51:22;50;45;
72793;PMS5003;63436;26.334;50.194;2022-11-23T03:53:48;53;46;
72793;PMS5003;63436;26.334;50.194;2022-11-23T03:56:14;51;51;
72793;PMS5003;63436;26.334;50.194;2022-11-23T03:58:39;57;56;
72793;PMS5003;63436;26.334;50.194;2022-11-23T04:01:04;56;55;
72793;PMS5003;63436;26.334;50.194;2022-11-23T04:03:30;60;60;
72793;PMS5003;63436;26.334;50.194;2022-11-23T04:05:55;56;56;
72793;PMS5003;63436;26.334;50.194;2022-11-23T04:08:20;54;52;
72793;PMS5003;63436;26.334;50.194;2022-11-23T04:10:45;60;59;
72793;PMS5003;63436;26.334;50.194;2022-11-23T04:13:10;60;58;
72793;PMS5003;63436;26.334;50.194;2022-11-23T04:15:35;77;75;
72793;PMS5003;63436;26.334;50.194;2022-11-23T04:18:00;52;49;
72793;PMS5003;63436;26.334;50.194;2022-11-23T04:20:25;47;44;
72793;PMS5003;63436;26.334;50.194;2022-11-23T04:22:51;50;48;
72793;PMS5003;63436;26.334;50.194;2022-11-23T04:25:16;54;51;
72793;PMS5003;63436;26.334;50.194;2022-11-23T04:27:41;46;46;
72793;PMS5003;63436;26.334;50.194;2022-11-23T04:30:07;53;49;
72793;PMS5003;63436;26.334;50.194;2022-11-23T04:32:32;58;54;
72793;PMS5003;63436;26.334;50.194;2022-11-23T04:34:57;53;48;
72793;PMS5003;63436;26.334;50.194;2022-11-23T04:37:22;49;47;
72793;PMS5003;63436;26.334;50.194;2022-11-23T04:39:48;51;47;
72793;PMS5003;63436;26.334;50.194;2022-11-23T04:42:13;58;53;
72793;PMS5003;63436;26.334;50.194;2022-11-23T04:44:38;52;51;
72793;PMS5003;63436;26.334;50.194;2022-11-23T04:47:04;49;43;
72793;PMS5003;63436;26.334;50.194;2022-11-23T04:49:29;46;45;
72793;PMS5003;63436;26.334;50.194;2022-11-23T04:51:54;42;41;
72793;PMS5003;63436;26.334;50.194;2022-11-23T04:54:19;48;44;
72793;PMS5003;63436;26.334;50.194;2022-11-23T04:56:44;43;43;
72793;PMS5003;63436;26.334;50.194;2022-11-23T04:59:10;44;42;
72793;PMS5003;63436;26.334;50.194;2022-11-23T05:01:35;46;44;
72793;PMS5003;63436;26.334;50.194;2022-11-23T05:04:00;43;42;
72793;PMS5003;63436;26.334;50.194;2022-11-23T05:06:25;47;44;
72793;PMS5003;63436;26.334;50.194;2022-11-23T05:08:51;44;44;
72793;PMS5003;63436;26.334;50.194;2022-11-23T05:11:17;43;41;
72793;PMS5003;63436;26.334;50.194;2022-11-23T05:13:42;45;43;
72793;PMS5003;63436;26.334;50.194;2022-11-23T05:16:07;43;40;
72793;PMS5003;63436;26.334;50.194;2022-11-23T05:18:33;50;47;
72793;PMS5003;63436;26.334;50.194;2022-11-23T05:20:58;44;43;
72793;PMS5003;63436;26.334;50.194;2022-11-23T05:23:24;46;42;
72793;PMS5003;63436;26.334;50.194;2022-11-23T05:25:50;59;49;
72793;PMS5003;63436;26.334;50.194;2022-11-23T05:28:16;48;44;
72793;PMS5003;63436;26.334;50.194;2022-11-23T05:30:41;52;46;
72793;PMS5003;63436;26.334;50.194;2022-11-23T05:33:06;49;45;
72793;PMS5003;63436;26.334;50.194;2022-11-23T05:35:32;54;47;
72793;PMS5003;63436;26.334;50.194;2022-11-23T05:37:57;49;45;
72793;PMS5003;63436;26.334;50.194;2022-11-23T05:40:23;47;43;
72793;PMS5003;63436;26.334;50.194;2022-11-23T05:42:48;43;40;
72793;PMS5003;63436;26.334;50.194;2022-11-23T05:45:13;47;40;
72793;PMS5003;63436;26.334;50.194;2022-11-23T05:47:39;42;42;
72793;PMS5003;63436;26.334;50.194;2022-11-23T05:50:05;46;43;
72793;PMS5003;63436;26.334;50.194;2022-11-23T05:52:30;44;41;
72793;PMS5003;63436;26.334;50.194;2022-11-23T05:54:55;50;44;
72793;PMS5003;63436;26.334;50.194;2022-11-23T05:57:20;47;43;
72793;PMS5003;63436;26.334;50.194;2022-11-23T05:59:45;46;42;
72793;PMS5003;63436;26.334;50.194;2022-11-23T06:02:10;56;47;
72793;PMS5003;63436;26.334;50.194;2022-11-23T06:04:36;49;45;
72793;PMS5003;63436;26.334;50.194;2022-11-23T06:07:03;49;46;
72793;PMS5003;63436;26.334;50.194;2022-11-23T06:09:27;46;45;
72793;PMS5003;63436;26.334;50.194;2022-11-23T06:11:52;48;45;
72793;PMS5003;63436;26.334;50.194;2022-11-23T06:14:18;48;46;
72793;PMS5003;63436;26.334;50.194;2022-11-23T06:16:43;47;44;
72793;PMS5003;63436;26.334;50.194;2022-11-23T06:19:09;44;44;
72793;PMS5003;63436;26.334;50.194;2022-11-23T06:21:35;50;45;
72793;PMS5003;63436;26.334;50.194;2022-11-23T06:24:00;52;47;
72793;PMS5003;63436;26.334;50.194;2022-11-23T06:26:26;51;48;
72793;PMS5003;63436;26.334;50.194;2022-11-23T06:28:52;51;46;
72793;PMS5003;63436;26.334;50.194;2022-11-23T06:31:17;51;46;
72793;PMS5003;63436;26.334;50.194;2022-11-23T06:33:42;43;43;
72793;PMS5003;63436;26.334;50.194;2022-11-23T06:36:08;47;43;
72793;PMS5003;63436;26.334;50.194;2022-11-23T06:38:33;54;46;
72793;PMS5003;63436;26.334;50.194;2022-11-23T06:40:59;48;42;
72793;PMS5003;63436;26.334;50.194;2022-11-23T06:43:24;57;48;
72793;PMS5003;63436;26.334;50.194;2022-11-23T06:45:50;50;45;
72793;PMS5003;63436;26.334;50.194;2022-11-23T06:48:15;50;48;
72793;PMS5003;63436;26.334;50.194;2022-11-23T06:50:41;49;46;
72793;PMS5003;63436;26.334;50.194;2022-11-23T06:53:07;49;46;
72793;PMS5003;63436;26.334;50.194;2022-11-23T06:55:32;51;45;
72793;PMS5003;63436;26.334;50.194;2022-11-23T06:57:57;49;45;
72793;PMS5003;63436;26.334;50.194;2022-11-23T07:00:23;52;45;
72793;PMS5003;63436;26.334;50.194;2022-11-23T07:02:50;53;48;
72793;PMS5003;63436;26.334;50.194;2022-11-23T07:05:14;50;47;
72793;PMS5003;63436;26.334;50.194;2022-11-23T07:07:40;54;50;
72793;PMS5003;63436;26.334;50.194;2022-11-23T07:10:06;51;47;
72793;PMS5003;63436;26.334;50.194;2022-11-23T07:12:31;48;45;
72793;PMS5003;63436;26.334;50.194;2022-11-23T07:14:56;47;43;
72793;PMS5003;63436;26.334;50.194;2022-11-23T07:17:21;45;41;
72793;PMS5003;63436;26.334;50.194;2022-11-23T07:19:46;47;45;
72793;PMS5003;63436;26.334;50.194;2022-11-23T07:22:11;44;40;
72793;PMS5003;63436;26.334;50.194;2022-11-23T07:24:37;49;45;
72793;PMS5003;63436;26.334;50.194;2022-11-23T07:27:02;45;42;
72793;PMS5003;63436;26.334;50.194;2022-11-23T07:29:28;50;43;
72793;PMS5003;63436;26.334;50.194;2022-11-23T07:31:54;48;45;
72793;PMS5003;63436;26.334;50.194;2022-11-23T07:34:19;46;43;
72793;PMS5003;63436;26.334;50.194;2022-11-23T07:36:45;49;46;
72793;PMS5003;63436;26.334;50.194;2022-11-23T07:39:10;50;50;
72793;PMS5003;63436;26.334;50.194;2022-11-23T07:41:36;47;47;
72793;PMS5003;63436;26.334;50.194;2022-11-23T07:44:01;47;46;
72793;PMS5003;63436;26.334;50.194;2022-11-23T07:46:27;44;44;
72793;PMS5003;63436;26.334;50.194;2022-11-23T07:48:52;45;44;
72793;PMS5003;63436;26.334;50.194;2022-11-23T07:51:18;51;46;
72793;PMS5003;63436;26.334;50.194;2022-11-23T07:53:43;51;47;
72793;PMS5003;63436;26.334;50.194;2022-11-23T07:56:08;50;46;
72793;PMS5003;63436;26.334;50.194;2022-11-23T07:58:34;51;45;
72793;PMS5003;63436;26.334;50.194;2022-11-23T08:00:59;47;45;
72793;PMS5003;63436;26.334;50.194;2022-11-23T08:03:25;48;46;
72793;PMS5003;63436;26.334;50.194;2022-11-23T08:05:50;49;45;
72793;PMS5003;63436;26.334;50.194;2022-11-23T08:08:16;48;45;
72793;PMS5003;63436;26.334;50.194;2022-11-23T08:10:42;53;48;
72793;PMS5003;63436;26.334;50.194;2022-11-23T08:13:08;52;50;
72793;PMS5003;63436;26.334;50.194;2022-11-23T08:15:34;47;43;
72793;PMS5003;63436;26.334;50.194;2022-11-23T08:17:59;51;45;
72793;PMS5003;63436;26.334;50.194;2022-11-23T08:20:25;49;47;
72793;PMS5003;63436;26.334;50.194;2022-11-23T08:22:50;47;47;
72793;PMS5003;63436;26.334;50.194;2022-11-23T08:25:15;46;44;
72793;PMS5003;63436;26.334;50.194;2022-11-23T08:27:41;49;46;
72793;PMS5003;63436;26.334;50.194;2022-11-23T08:30:06;57;53;
72793;PMS5003;63436;26.334;50.194;2022-11-23T08:32:31;50;47;
72793;PMS5003;63436;26.334;50.194;2022-11-23T08:34:57;53;50;
72793;PMS5003;63436;26.334;50.194;2022-11-23T08:37:22;54;50;
72793;PMS5003;63436;26.334;50.194;2022-11-23T08:39:47;58;50;
72793;PMS5003;63436;26.334;50.194;2022-11-23T08:42:12;52;47;
72793;PMS5003;63436;26.334;50.194;2022-11-23T08:44:38;53;47;
72793;PMS5003;63436;26.334;50.194;2022-11-23T08:47:04;52;48;
72793;PMS5003;63436;26.334;50.194;2022-11-23T08:49:29;46;43;
72793;PMS5003;63436;26.334;50.194;2022-11-23T08:51:54;49;48;
72793;PMS5003;63436;26.334;50.194;2022-11-23T08:54:19;53;53;
72793;PMS5003;63436;26.334;50.194;2022-11-23T08:56:45;52;52;
72793;PMS5003;63436;26.334;50.194;2022-11-23T08:59:10;55;53;
72793;PMS5003;63436;26.334;50.194;2022-11-23T09:01:35;55;52;
72793;PMS5003;63436;26.334;50.194;2022-11-23T09:04:00;58;55;
72793;PMS5003;63436;26.334;50.194;2022-11-23T09:06:26;52;50;
72793;PMS5003;63436;26.334;50.194;2022-11-23T09:08:51;54;53;
72793;PMS5003;63436;26.334;50.194;2022-11-23T09:11:22;55;53;
72793;PMS5003;63436;26.334;50.194;2022-11-23T09:16:08;55;55;
72793;PMS5003;63436;26.334;50.194;2022-11-23T09:18:33;56;51;
72793;PMS5003;63436;26.334;50.194;2022-11-23T09:21:00;56;52;
72793;PMS5003;63436;26.334;50.194;2022-11-23T09:23:24;60;58;
72793;PMS5003;63436;26.334;50.194;2022-11-23T09:25:49;61;56;
72793;PMS5003;63436;26.334;50.194;2022-11-23T09:28:15;56;53;
72793;PMS5003;63436;26.334;50.194;2022-11-23T09:30:41;62;60;
72793;PMS5003;63436;26.334;50.194;2022-11-23T09:33:06;57;56;
72793;PMS5003;63436;26.334;50.194;2022-11-23T09:35:31;65;62;
72793;PMS5003;63436;26.334;50.194;2022-11-23T09:37:56;65;64;
72793;PMS5003;63436;26.334;50.194;2022-11-23T09:40:22;64;60;
72793;PMS5003;63436;26.334;50.194;2022-11-23T09:42:52;68;63;
72793;PMS5003;63436;26.334;50.194;2022-11-23T09:45:15;65;60;
72793;PMS5003;63436;26.334;50.194;2022-11-23T09:47:43;63;60;
72793;PMS5003;63436;26.334;50.194;2022-11-23T09:50:09;68;64;
72793;PMS5003;63436;26.334;50.194;2022-11-23T09:52:29;73;65;
72793;PMS5003;63436;26.334;50.194;2022-11-23T09:54:56;69;61;
72793;PMS5003;63436;26.334;50.194;2022-11-23T09:57:20;66;62;
72793;PMS5003;63436;26.334;50.194;2022-11-23T09:59:47;66;61;
72793;PMS5003;63436;26.334;50.194;2022-11-23T10:02:14;57;56;
72793;PMS5003;63436;26.334;50.194;2022-11-23T10:04:37;65;58;
72793;PMS5003;63436;26.334;50.194;2022-11-23T10:09:31;63;56;
72793;PMS5003;63436;26.334;50.194;2022-11-23T10:11:58;56;55;
72793;PMS5003;63436;26.334;50.194;2022-11-23T10:14:21;63;56;
72793;PMS5003;63436;26.334;50.194;2022-11-23T10:16:45;54;52;
72793;PMS5003;63436;26.334;50.194;2022-11-23T10:19:11;62;54;
72793;PMS5003;63436;26.334;50.194;2022-11-23T10:21:37;57;55;
72793;PMS5003;63436;26.334;50.194;2022-11-23T10:24:03;56;53;
72793;PMS5003;63436;26.334;50.194;2022-11-23T10:26:27;58;56;
72793;PMS5003;63436;26.334;50.194;2022-11-23T10:28:50;60;55;
72793;PMS5003;63436;26.334;50.194;2022-11-23T10:31:17;58;51;
72793;PMS5003;63436;26.334;50.194;2022-11-23T10:33:43;52;51;
72793;PMS5003;63436;26.334;50.194;2022-11-23T10:36:07;57;54;
72793;PMS5003;63436;26.334;50.194;2022-11-23T10:38:32;57;52;
72793;PMS5003;63436;26.334;50.194;2022-11-23T10:40:59;55;49;
72793;PMS5003;63436;26.334;50.194;2022-11-23T10:43:24;58;53;
72793;PMS5003;63436;26.334;50.194;2022-11-23T10:45:48;54;51;
72793;PMS5003;63436;26.334;50.194;2022-11-23T10:48:15;59;54;
72793;PMS5003;63436;26.334;50.194;2022-11-23T10:50:39;55;52;
72793;PMS5003;63436;26.334;50.194;2022-11-23T10:55:31;54;54;
72793;PMS5003;63436;26.334;50.194;2022-11-23T10:57:56;56;55;
72793;PMS5003;63436;26.334;50.194;2022-11-23T11:00:21;54;54;
72793;PMS5003;63436;26.334;50.194;2022-11-23T11:02:47;55;49;
72793;PMS5003;63436;26.334;50.194;2022-11-23T11:05:19;62;57;
72793;PMS5003;63436;26.334;50.194;2022-11-23T11:07:38;60;55;
72793;PMS5003;63436;26.334;50.194;2022-11-23T11:10:04;56;54;
72793;PMS5003;63436;26.334;50.194;2022-11-23T11:12:31;59;52;
72793;PMS5003;63436;26.334;50.194;2022-11-23T11:14:56;70;65;
72793;PMS5003;63436;26.334;50.194;2022-11-23T11:17:24;58;54;
72793;PMS5003;63436;26.334;50.194;2022-11-23T11:19:46;57;53;
72793;PMS5003;63436;26.334;50.194;2022-11-23T11:24:37;59;57;
72793;PMS5003;63436;26.334;50.194;2022-11-23T11:27:03;60;54;
72793;PMS5003;63436;26.334;50.194;2022-11-23T11:29:30;59;51;
72793;PMS5003;63436;26.334;50.194;2022-11-23T11:31:53;52;51;
72793;PMS5003;63436;26.334;50.194;2022-11-23T11:34:20;51;49;
72793;PMS5003;63436;26.334;50.194;2022-11-23T11:36:45;50;50;
72793;PMS5003;63436;26.334;50.194;2022-11-23T11:39:09;48;48;
72793;PMS5003;63436;26.334;50.194;2022-11-23T11:41:34;52;49;
72793;PMS5003;63436;26.334;50.194;2022-11-23T11:44:01;56;54;
72793;PMS5003;63436;26.334;50.194;2022-11-23T11:46:26;56;56;
72793;PMS5003;63436;26.334;50.194;2022-11-23T11:48:50;58;54;
72793;PMS5003;63436;26.334;50.194;2022-11-23T11:51:18;58;53;
72793;PMS5003;63436;26.334;50.194;2022-11-23T11:53:42;54;51;
72793;PMS5003;63436;26.334;50.194;2022-11-23T11:56:10;53;51;
72793;PMS5003;63436;26.334;50.194;2022-11-23T11:58:31;56;54;
72793;PMS5003;63436;26.334;50.194;2022-11-23T12:00:59;57;57;
72793;PMS5003;63436;26.334;50.194;2022-11-23T12:03:24;50;47;
72793;PMS5003;63436;26.334;50.194;2022-11-23T12:05:48;56;53;
72793;PMS5003;63436;26.334;50.194;2022-11-23T12:08:13;53;51;
72793;PMS5003;63436;26.334;50.194;2022-11-23T12:10:40;55;52;
72793;PMS5003;63436;26.334;50.194;2022-11-23T12:13:04;55;52;
72793;PMS5003;63436;26.334;50.194;2022-11-23T12:15:31;53;49;
72793;PMS5003;63436;26.334;50.194;2022-11-23T12:18:02;54;52;
72793;PMS5003;63436;26.334;50.194;2022-11-23T12:20:22;57;53;
72793;PMS5003;63436;26.334;50.194;2022-11-23T12:22:50;56;55;
72793;PMS5003;63436;26.334;50.194;2022-11-23T12:25:15;52;51;
72793;PMS5003;63436;26.334;50.194;2022-11-23T12:27:40;55;52;
72793;PMS5003;63436;26.334;50.194;2022-11-23T12:30:13;60;56;
72793;PMS5003;63436;26.334;50.194;2022-11-23T12:32:31;70;66;
72793;PMS5003;63436;26.334;50.194;2022-11-23T12:34:57;63;61;
72793;PMS5003;63436;26.334;50.194;2022-11-23T12:37:23;58;56;
72793;PMS5003;63436;26.334;50.194;2022-11-23T12:42:13;57;54;
72793;PMS5003;63436;26.334;50.194;2022-11-23T12:44:40;66;62;
72793;PMS5003;63436;26.334;50.194;2022-11-23T12:47:04;61;57;
72793;PMS5003;63436;26.334;50.194;2022-11-23T12:49:30;68;67;
72793;PMS5003;63436;26.334;50.194;2022-11-23T12:51:59;64;62;
72793;PMS5003;63436;26.334;50.194;2022-11-23T12:54:25;67;62;
72793;PMS5003;63436;26.334;50.194;2022-11-23T12:56:54;68;65;
72793;PMS5003;63436;26.334;50.194;2022-11-23T12:59:15;63;63;
72793;PMS5003;63436;26.334;50.194;2022-11-23T13:01:35;63;63;
72793;PMS5003;63436;26.334;50.194;2022-11-23T13:04:11;68;66;
72793;PMS5003;63436;26.334;50.194;2022-11-23T13:06:36;65;64;
72793;PMS5003;63436;26.334;50.194;2022-11-23T13:08:59;65;64;
72793;PMS5003;63436;26.334;50.194;2022-11-23T13:11:19;63;59;
72793;PMS5003;63436;26.334;50.194;2022-11-23T13:13:45;63;58;
72793;PMS5003;63436;26.334;50.194;2022-11-23T13:16:14;61;58;
72793;PMS5003;63436;26.334;50.194;2022-11-23T13:18:37;64;61;
72793;PMS5003;63436;26.334;50.194;2022-11-23T13:21:02;64;64;
72793;PMS5003;63436;26.334;50.194;2022-11-23T13:23:24;64;63;
72793;PMS5003;63436;26.334;50.194;2022-11-23T13:30:39;66;62;
72793;PMS5003;63436;26.334;50.194;2022-11-23T13:40:22;72;66;
72793;PMS5003;63436;26.334;50.194;2022-11-23T13:42:46;66;65;
72793;PMS5003;63436;26.334;50.194;2022-11-23T13:45:12;70;65;
72793;PMS5003;63436;26.334;50.194;2022-11-23T13:47:37;62;60;
72793;PMS5003;63436;26.334;50.194;2022-11-23T13:50:07;63;62;
72793;PMS5003;63436;26.334;50.194;2022-11-23T13:52:28;65;62;
72793;PMS5003;63436;26.334;50.194;2022-11-23T13:54:55;68;63;
72793;PMS5003;63436;26.334;50.194;2022-11-23T13:57:20;60;57;
72793;PMS5003;63436;26.334;50.194;2022-11-23T13:59:45;58;57;
72793;PMS5003;63436;26.334;50.194;2022-11-23T14:04:37;68;62;
72793;PMS5003;63436;26.334;50.194;2022-11-23T14:07:02;70;67;
72793;PMS5003;63436;26.334;50.194;2022-11-23T14:09:29;67;62;
72793;PMS5003;63436;26.334;50.194;2022-11-23T14:11:57;71;65;
72793;PMS5003;63436;26.334;50.194;2022-11-23T14:14:20;69;63;
72793;PMS5003;63436;26.334;50.194;2022-11-23T14:16:52;60;59;
72793;PMS5003;63436;26.334;50.194;2022-11-23T14:19:12;70;68;
72793;PMS5003;63436;26.334;50.194;2022-11-23T14:21:36;68;68;
72793;PMS5003;63436;26.334;50.194;2022-11-23T14:24:04;69;67;
72793;PMS5003;63436;26.334;50.194;2022-11-23T14:26:29;66;63;
72793;PMS5003;63436;26.334;50.194;2022-11-23T14:28:55;65;65;
72793;PMS5003;63436;26.334;50.194;2022-11-23T14:31:20;70;64;
72793;PMS5003;63436;26.334;50.194;2022-11-23T14:33:45;65;64;
72793;PMS5003;63436;26.334;50.194;2022-11-23T14:36:12;71;64;
72793;PMS5003;63436;26.334;50.194;2022-11-23T14:38:40;62;59;
72793;PMS5003;63436;26.334;50.194;2022-11-23T14:41:00;61;60;
72793;PMS5003;63436;26.334;50.194;2022-11-23T14:43:24;74;67;
72793;PMS5003;63436;26.334;50.194;2022-11-23T14:45:49;65;61;
72793;PMS5003;63436;26.334;50.194;2022-11-23T14:48:21;61;57;
72793;PMS5003;63436;26.334;50.194;2022-11-23T14:50:40;63;61;
72793;PMS5003;63436;26.334;50.194;2022-11-23T14:53:08;63;60;
72793;PMS5003;63436;26.334;50.194;2022-11-23T14:55:31;63;59;
72793;PMS5003;63436;26.334;50.194;2022-11-23T14:57:57;75;67;
72793;PMS5003;63436;26.334;50.194;2022-11-23T15:00:23;68;67;
72793;PMS5003;63436;26.334;50.194;2022-11-23T15:02:48;72;68;
72793;PMS5003;63436;26.334;50.194;2022-11-23T15:05:15;69;63;
72793;PMS5003;63436;26.334;50.194;2022-11-23T15:07:41;62;60;
72793;PMS5003;63436;26.334;50.194;2022-11-23T15:10:05;66;61;
72793;PMS5003;63436;26.334;50.194;2022-11-23T15:12:39;68;65;
72793;PMS5003;63436;26.334;50.194;2022-11-23T15:14:55;80;73;
72793;PMS5003;63436;26.334;50.194;2022-11-23T15:17:20;69;66;
72793;PMS5003;63436;26.334;50.194;2022-11-23T15:19:53;72;70;
72793;PMS5003;63436;26.334;50.194;2022-11-23T15:22:12;76;66;
72793;PMS5003;63436;26.334;50.194;2022-11-23T15:24:36;64;63;
72793;PMS5003;63436;26.334;50.194;2022-11-23T15:27:03;71;67;
72793;PMS5003;63436;26.334;50.194;2022-11-23T15:29:30;74;68;
72793;PMS5003;63436;26.334;50.194;2022-11-23T15:31:53;70;65;
72793;PMS5003;63436;26.334;50.194;2022-11-23T15:34:19;69;64;
72793;PMS5003;63436;26.334;50.194;2022-11-23T15:36:45;69;67;
72793;PMS5003;63436;26.334;50.194;2022-11-23T15:39:13;76;71;
72793;PMS5003;63436;26.334;50.194;2022-11-23T15:41:35;68;67;
72793;PMS5003;63436;26.334;50.194;2022-11-23T15:44:01;73;65;
72793;PMS5003;63436;26.334;50.194;2022-11-23T15:46:27;68;65;
72793;PMS5003;63436;26.334;50.194;2022-11-23T15:48:51;71;71;
72793;PMS5003;63436;26.334;50.194;2022-11-23T15:51:22;73;70;
72793;PMS5003;63436;26.334;50.194;2022-11-23T15:53:44;75;66;
72793;PMS5003;63436;26.334;50.194;2022-11-23T15:56:12;66;63;
72793;PMS5003;63436;26.334;50.194;2022-11-23T15:58:33;75;71;
72793;PMS5003;63436;26.334;50.194;2022-11-23T16:01:01;66;66;
72793;PMS5003;63436;26.334;50.194;2022-11-23T16:03:27;74;71;
72793;PMS5003;63436;26.334;50.194;2022-11-23T16:13:06;75;73;
72793;PMS5003;63436;26.334;50.194;2022-11-23T16:15:35;75;74;
72793;PMS5003;63436;26.334;50.194;2022-11-23T16:17:57;75;73;
72793;PMS5003;63436;26.334;50.194;2022-11-23T16:20:22;79;76;
72793;PMS5003;63436;26.334;50.194;2022-11-23T16:22:48;78;74;
72793;PMS5003;63436;26.334;50.194;2022-11-23T16:25:15;73;71;
72793;PMS5003;63436;26.334;50.194;2022-11-23T16:27:38;79;76;